Terminal Aerodrome Forecast
Issued by NWS Spokane, WA

Home | Current Version | Previous Version | Text Only | Print | Product List | Glossary On
Versions: 1 2 3 4 5 6 7 8 9 10 11 12 13 14 15 16 17 18 19 20 21 22 23 24 25 26 27 28 29 30 31 32 33 34 35 36 37 38 39 40 41 42 43 44 45
000
FTUS46 KOTX 270539
TAFGEG
TAF
KGEG 270539Z 2706/2806 00000KT P6SM SCT200
     FM270700 VRB02KT P6SM BCFG FEW001 FEW150 SCT200
     FM271500 VRB04KT 1/2SM FG VV002 BKN200
     FM271800 13004KT 1SM BR BKN003
     FM272100 17005KT 6SM BR SCT005 BKN150
     FM280500 20005KT P6SM BKN009 OVC120=

USA.gov is the U.S. government's official web portal to all federal, state and local government web resources and services.